createdAt,value
2018-08-18T00:00:49.351Z,1009.08
2018-08-18T00:01:49.361Z,1009.03
2018-08-18T00:02:49.325Z,1009.05
2018-08-18T00:03:49.321Z,1009.07
2018-08-18T00:04:49.309Z,1009.04
2018-08-18T00:05:49.288Z,1009.06
2018-08-18T00:06:49.304Z,1009.09
2018-08-18T00:07:49.270Z,1009.04
2018-08-18T00:08:49.255Z,1009.14
2018-08-18T00:09:49.253Z,1009.09
2018-08-18T00:10:49.236Z,1009.06
2018-08-18T00:11:49.252Z,1009.14
2018-08-18T00:12:49.210Z,1009.15
2018-08-18T00:13:49.199Z,1009.13
2018-08-18T00:14:49.191Z,1009.15
2018-08-18T00:15:49.175Z,1009.12
2018-08-18T00:16:49.162Z,1009.12
2018-08-18T00:17:49.178Z,1009.12
2018-08-18T00:18:49.161Z,1009.14
2018-08-18T00:19:49.131Z,1009.15
2018-08-18T00:20:49.122Z,1009.19
2018-08-18T00:21:49.105Z,1009.17
2018-08-18T00:22:49.120Z,1009.18
2018-08-18T00:23:49.082Z,1009.16
2018-08-18T00:24:49.077Z,1009.12
2018-08-18T00:25:49.059Z,1009.15
2018-08-18T00:26:49.052Z,1009.14
2018-08-18T00:27:49.063Z,1009.10
2018-08-18T00:28:49.029Z,1009.14
2018-08-18T00:29:49.009Z,1009.11
2018-08-18T00:30:49.007Z,1009.14
2018-08-18T00:31:48.985Z,1009.14
2018-08-18T00:32:49.012Z,1009.13
2018-08-18T00:33:48.965Z,1009.10
2018-08-18T00:34:48.958Z,1009.15
2018-08-18T00:35:48.940Z,1009.14
2018-08-18T00:36:48.936Z,1009.16
2018-08-18T00:37:48.916Z,1009.16
2018-08-18T00:38:48.935Z,1009.15
2018-08-18T00:39:48.899Z,1009.14
2018-08-18T00:40:48.884Z,1009.11
2018-08-18T00:41:48.871Z,1009.12
2018-08-18T00:42:48.866Z,1009.11
2018-08-18T00:43:48.878Z,1009.10
2018-08-18T00:44:48.837Z,1009.08
2018-08-18T00:45:48.824Z,1009.09
2018-08-18T00:46:48.814Z,1009.06
2018-08-18T00:47:48.801Z,1009.11
2018-08-18T00:48:48.827Z,1009.06
2018-08-18T00:49:48.773Z,1009.13
2018-08-18T00:50:48.770Z,1009.13
2018-08-18T00:51:48.751Z,1009.17
2018-08-18T00:52:48.743Z,1009.15
2018-08-18T00:53:48.731Z,1009.18
2018-08-18T00:54:48.740Z,1009.18
2018-08-18T00:55:48.710Z,1009.16
2018-08-18T00:56:48.697Z,1009.24
2018-08-18T00:57:48.686Z,1009.23
2018-08-18T00:58:48.679Z,1009.22
2018-08-18T00:59:48.681Z,1009.22
2018-08-18T01:00:48.654Z,1009.26
2018-08-18T01:01:48.683Z,1009.27
2018-08-18T01:02:48.623Z,1009.27
2018-08-18T01:03:48.615Z,1009.24
2018-08-18T01:04:48.629Z,1009.21
2018-08-18T01:05:48.595Z,1009.19
2018-08-18T01:06:48.622Z,1009.19
2018-08-18T01:07:48.567Z,1009.18
2018-08-18T01:08:48.560Z,1009.20
2018-08-18T01:09:48.539Z,1009.20
2018-08-18T01:10:48.619Z,1009.18
2018-08-18T01:11:48.651Z,1009.20
2018-08-18T01:12:48.530Z,1009.21
2018-08-18T01:13:48.658Z,1009.24
2018-08-18T01:14:48.582Z,1009.30
2018-08-18T01:15:48.519Z,1009.28
2018-08-18T01:16:48.463Z,1009.27
2018-08-18T01:17:48.448Z,1009.29
2018-08-18T01:18:48.435Z,1009.26
2018-08-18T01:19:48.433Z,1009.29
2018-08-18T01:20:48.436Z,1009.30
2018-08-18T01:21:48.403Z,1009.30
2018-08-18T01:22:48.395Z,1009.33
2018-08-18T01:23:48.376Z,1009.34
2018-08-18T01:24:48.371Z,1009.33
2018-08-18T01:25:48.381Z,1009.34
2018-08-18T01:26:48.348Z,1009.39
2018-08-18T01:27:48.333Z,1009.34
2018-08-18T01:28:54.828Z,1009.43
2018-08-18T01:29:48.309Z,1009.43
2018-08-18T01:30:48.332Z,1009.48
2018-08-18T01:31:48.278Z,1009.42
2018-08-18T01:32:48.276Z,1009.45
2018-08-18T01:33:48.256Z,1009.48
2018-08-18T01:34:48.254Z,1009.42
2018-08-18T01:35:48.233Z,1009.46
2018-08-18T01:36:48.251Z,1009.46
2018-08-18T01:37:48.212Z,1009.47
2018-08-18T01:38:48.197Z,1009.46
2018-08-18T01:39:48.194Z,1009.45
2018-08-18T01:40:48.177Z,1009.49
2018-08-18T01:41:48.190Z,1009.54
2018-08-18T01:42:48.153Z,1009.50
2018-08-18T01:43:48.199Z,1009.51
2018-08-18T01:44:48.127Z,1009.50
2018-08-18T01:45:48.122Z,1009.48
2018-08-18T01:46:48.132Z,1009.45
2018-08-18T01:47:48.102Z,1009.46
2018-08-18T01:48:48.078Z,1009.47
2018-08-18T01:49:48.077Z,1009.54
2018-08-18T01:50:48.061Z,1009.53
2018-08-18T01:51:48.082Z,1009.53
2018-08-18T01:52:48.034Z,1009.52
2018-08-18T01:53:48.026Z,1009.53
2018-08-18T01:54:48.017Z,1009.57
2018-08-18T01:55:47.995Z,1009.50
2018-08-18T01:56:47.983Z,1009.54
2018-08-18T01:57:48.003Z,1009.52
2018-08-18T01:58:47.961Z,1009.50
2018-08-18T01:59:47.958Z,1009.53
2018-08-18T02:00:47.939Z,1009.49
2018-08-18T02:01:47.930Z,1009.51
2018-08-18T02:02:47.940Z,1009.49
2018-08-18T02:03:47.907Z,1009.47
2018-08-18T02:04:47.900Z,1009.53
2018-08-18T02:05:47.878Z,1009.51
2018-08-18T02:06:47.876Z,1009.49
2018-08-18T02:07:47.886Z,1009.53
2018-08-18T02:08:47.850Z,1009.46
2018-08-18T02:09:47.836Z,1009.49
2018-08-18T02:10:47.826Z,1009.42
2018-08-18T02:11:47.812Z,1009.44
2018-08-18T02:12:47.804Z,1009.44
2018-08-18T02:13:47.809Z,1009.43
2018-08-18T02:14:47.774Z,1009.42
2018-08-18T02:15:47.768Z,1009.41
2018-08-18T02:16:47.754Z,1009.40
2018-08-18T02:17:47.771Z,1009.37
2018-08-18T02:18:47.724Z,1009.40
2018-08-18T02:19:47.724Z,1009.36
2018-08-18T02:20:47.702Z,1009.33
2018-08-18T02:21:47.699Z,1009.34
2018-08-18T02:22:47.680Z,1009.35
2018-08-18T02:23:47.697Z,1009.34
2018-08-18T02:24:47.660Z,1009.36
2018-08-18T02:25:47.649Z,1009.41
2018-08-18T02:26:47.633Z,1009.39
2018-08-18T02:27:47.625Z,1009.42
2018-08-18T02:28:47.631Z,1009.44
2018-08-18T02:29:47.605Z,1009.43
2018-08-18T02:30:47.590Z,1009.41
2018-08-18T02:31:47.575Z,1009.38
2018-08-18T02:32:47.564Z,1009.34
2018-08-18T02:33:47.582Z,1009.29
2018-08-18T02:34:47.545Z,1009.33
2018-08-18T02:35:47.523Z,1009.36
2018-08-18T02:36:47.516Z,1009.31
2018-08-18T02:37:47.500Z,1009.30
2018-08-18T02:38:47.517Z,1009.27
2018-08-18T02:39:47.483Z,1009.27
2018-08-18T02:40:47.465Z,1009.27
2018-08-18T02:41:47.463Z,1009.26
2018-08-18T02:42:47.446Z,1009.22
2018-08-18T02:43:47.462Z,1009.33
2018-08-18T02:44:47.422Z,1009.31
2018-08-18T02:45:47.411Z,1009.31
2018-08-18T02:46:47.399Z,1009.30
2018-08-18T02:47:47.388Z,1009.33
2018-08-18T02:48:47.379Z,1009.36
2018-08-18T02:49:47.389Z,1009.34
2018-08-18T02:50:47.347Z,1009.24
2018-08-18T02:51:47.345Z,1009.26
2018-08-18T02:52:47.323Z,1009.21
2018-08-18T02:53:47.324Z,1009.33
2018-08-18T02:54:47.328Z,1009.27
2018-08-18T02:55:47.290Z,1009.28
2018-08-18T02:56:47.278Z,1009.27
2018-08-18T02:57:47.273Z,1009.32
2018-08-18T02:58:47.254Z,1009.31
2018-08-18T02:59:47.270Z,1009.29
2018-08-18T03:00:47.229Z,1009.24
2018-08-18T03:01:47.225Z,1009.23
2018-08-18T03:02:47.204Z,1009.26
2018-08-18T03:03:47.202Z,1009.30
2018-08-18T03:04:47.218Z,1009.31
2018-08-18T03:05:47.178Z,1009.29
2018-08-18T03:06:47.170Z,1009.29
2018-08-18T03:07:47.182Z,1009.31
2018-08-18T03:08:47.136Z,1009.28
2018-08-18T03:09:47.128Z,1009.27
2018-08-18T03:10:47.137Z,1009.37
2018-08-18T03:11:47.106Z,1009.34
2018-08-18T03:12:47.087Z,1009.34
2018-08-18T03:13:47.085Z,1009.32
2018-08-18T03:14:47.064Z,1009.36
2018-08-18T03:15:47.085Z,1009.38
2018-08-18T03:16:47.048Z,1009.40
2018-08-18T03:17:47.029Z,1009.39
2018-08-18T03:18:47.017Z,1009.40
2018-08-18T03:19:47.011Z,1009.46
2018-08-18T03:20:47.035Z,1009.52
2018-08-18T03:21:46.985Z,1009.52
2018-08-18T03:22:46.975Z,1009.47
2018-08-18T03:23:46.968Z,1009.50
2018-08-18T03:24:46.953Z,1009.46
2018-08-18T03:25:46.937Z,1009.49
2018-08-18T03:26:46.947Z,1009.50
2018-08-18T03:27:46.920Z,1009.55
2018-08-18T03:28:46.910Z,1009.51
2018-08-18T03:29:46.889Z,1009.52
2018-08-18T03:30:46.879Z,1009.55
2018-08-18T03:31:46.898Z,1009.53
2018-08-18T03:32:46.858Z,1009.53
2018-08-18T03:33:46.842Z,1009.56
2018-08-18T03:34:46.828Z,1009.57
2018-08-18T03:35:46.826Z,1009.54
2018-08-18T03:36:46.831Z,1009.54
2018-08-18T03:37:46.797Z,1009.59
2018-08-18T03:38:46.793Z,1009.54
2018-08-18T03:39:46.769Z,1009.57
2018-08-18T03:40:46.762Z,1009.58
2018-08-18T03:41:46.782Z,1009.59
2018-08-18T03:42:46.735Z,1009.55
2018-08-18T03:43:46.727Z,1009.61
2018-08-18T03:44:46.717Z,1009.56
2018-08-18T03:45:46.708Z,1009.57
2018-08-18T03:46:46.691Z,1009.56
2018-08-18T03:47:46.702Z,1009.59
2018-08-18T03:48:46.665Z,1009.60
2018-08-18T03:49:46.655Z,1009.61
2018-08-18T03:50:46.643Z,1009.61
2018-08-18T03:51:46.632Z,1009.57
2018-08-18T03:52:46.642Z,1009.62
2018-08-18T03:53:46.604Z,1009.58
2018-08-18T03:54:46.594Z,1009.61
2018-08-18T03:55:46.580Z,1009.61
2018-08-18T03:56:46.571Z,1009.56
2018-08-18T03:57:46.579Z,1009.54
2018-08-18T03:58:46.544Z,1009.56
2018-08-18T03:59:46.532Z,1009.61
2018-08-18T04:00:46.521Z,1009.58
2018-08-18T04:01:46.511Z,1009.61
2018-08-18T04:02:46.526Z,1009.59
2018-08-18T04:03:46.482Z,1009.61
2018-08-18T04:04:46.470Z,1009.65
2018-08-18T04:05:46.467Z,1009.61
2018-08-18T04:06:46.457Z,1009.63
2018-08-18T04:07:46.462Z,1009.64
2018-08-18T04:08:46.426Z,1009.67
2018-08-18T04:09:46.418Z,1009.63
2018-08-18T04:10:46.409Z,1009.67
2018-08-18T04:11:46.388Z,1009.66
2018-08-18T04:12:46.411Z,1009.64
2018-08-18T04:13:46.366Z,1009.65
2018-08-18T04:14:46.356Z,1009.70
2018-08-18T04:15:46.341Z,1009.60
2018-08-18T04:16:46.334Z,1009.65
2018-08-18T04:17:46.350Z,1009.67
2018-08-18T04:18:46.310Z,1009.68
2018-08-18T04:19:46.303Z,1009.73
2018-08-18T04:20:46.289Z,1009.71
2018-08-18T04:21:46.269Z,1009.66
2018-08-18T04:22:46.288Z,1009.73
2018-08-18T04:23:46.251Z,1009.72
2018-08-18T04:24:46.239Z,1009.72
2018-08-18T04:25:46.224Z,1009.73
2018-08-18T04:26:46.210Z,1009.70
2018-08-18T04:27:46.238Z,1009.73
2018-08-18T04:28:46.193Z,1009.73
2018-08-18T04:29:46.175Z,1009.77
2018-08-18T04:30:46.169Z,1009.80
2018-08-18T04:31:46.162Z,1009.79
2018-08-18T04:32:46.146Z,1009.77
2018-08-18T04:33:46.154Z,1009.80
2018-08-18T04:34:46.123Z,1009.81
2018-08-18T04:35:46.102Z,1009.79
2018-08-18T04:36:46.097Z,1009.81
2018-08-18T04:37:46.084Z,1009.82
2018-08-18T04:38:46.091Z,1009.81
2018-08-18T04:39:46.067Z,1009.85
2018-08-18T04:40:46.045Z,1009.82
2018-08-18T04:41:46.038Z,1009.87
2018-08-18T04:42:46.027Z,1009.82
2018-08-18T04:43:46.043Z,1009.88
2018-08-18T04:44:46.004Z,1009.91
2018-08-18T04:45:45.988Z,1009.88
2018-08-18T04:46:45.982Z,1009.91
2018-08-18T04:47:45.957Z,1009.92
2018-08-18T04:48:45.952Z,1009.90
2018-08-18T04:49:45.957Z,1009.91
2018-08-18T04:50:45.929Z,1009.88
2018-08-18T04:51:45.920Z,1009.90
2018-08-18T04:52:45.901Z,1009.90
2018-08-18T04:53:45.892Z,1009.90
2018-08-18T04:54:45.901Z,1009.88
2018-08-18T04:55:45.869Z,1009.89
2018-08-18T04:56:45.887Z,1009.92
2018-08-18T04:57:45.840Z,1009.93
2018-08-18T04:58:45.834Z,1009.84
2018-08-18T04:59:45.848Z,1009.88
2018-08-18T05:00:45.802Z,1009.93
2018-08-18T05:01:45.798Z,1009.91
2018-08-18T05:02:45.785Z,1009.93
2018-08-18T05:03:45.770Z,1009.87
2018-08-18T05:04:45.765Z,1009.80
2018-08-18T05:05:45.771Z,1009.92
2018-08-18T05:06:45.739Z,1009.90
2018-08-18T05:07:45.723Z,1009.91
2018-08-18T05:08:45.711Z,1009.86
2018-08-18T05:09:45.702Z,1009.88
2018-08-18T05:10:45.710Z,1009.92
2018-08-18T05:11:45.754Z,1009.85
2018-08-18T05:12:45.660Z,1009.91
2018-08-18T05:13:45.655Z,1009.97
2018-08-18T05:14:45.643Z,1009.93
2018-08-18T05:15:45.646Z,1009.88
2018-08-18T05:16:45.612Z,1009.87
2018-08-18T05:17:45.604Z,1009.93
2018-08-18T05:18:45.635Z,1009.92
2018-08-18T05:19:45.580Z,1009.93
2018-08-18T05:20:45.584Z,1009.90
2018-08-18T05:21:45.555Z,1009.91
2018-08-18T05:22:45.547Z,1009.93
2018-08-18T05:23:45.530Z,1009.92
2018-08-18T05:24:45.525Z,1009.94
2018-08-18T05:25:45.537Z,1009.91
2018-08-18T05:26:45.497Z,1009.90
2018-08-18T05:27:45.487Z,1009.92
2018-08-18T05:28:45.475Z,1009.94
2018-08-18T05:29:45.462Z,1009.96
2018-08-18T05:30:45.452Z,1009.92
2018-08-18T05:31:45.466Z,1009.88
2018-08-18T05:32:45.430Z,1009.95
2018-08-18T05:33:45.417Z,1009.91
2018-08-18T05:34:45.407Z,1009.92
2018-08-18T05:35:45.424Z,1009.91
2018-08-18T05:36:45.385Z,1009.94
2018-08-18T05:37:45.370Z,1009.98
2018-08-18T05:38:45.357Z,1009.97
2018-08-18T05:39:45.347Z,1009.96
2018-08-18T05:40:45.333Z,1009.91
2018-08-18T05:41:45.346Z,1009.86
2018-08-18T05:42:45.311Z,1009.93
2018-08-18T05:43:45.301Z,1009.97
2018-08-18T05:44:45.283Z,1009.95
2018-08-18T05:45:45.279Z,1010.00
2018-08-18T05:46:45.286Z,1009.96
2018-08-18T05:47:45.258Z,1009.98
2018-08-18T05:48:45.239Z,1010.00
2018-08-18T05:49:45.232Z,1010.00
2018-08-18T05:50:45.214Z,1010.00
2018-08-18T05:51:45.241Z,1009.99
2018-08-18T05:52:45.192Z,1009.98
2018-08-18T05:53:45.183Z,1009.99
2018-08-18T05:54:45.169Z,1010.00
2018-08-18T05:55:45.160Z,1009.96
2018-08-18T05:56:45.149Z,1010.00
2018-08-18T05:57:45.165Z,1010.01
2018-08-18T05:58:45.128Z,1009.99
2018-08-18T05:59:45.130Z,1009.99
2018-08-18T06:00:45.105Z,1009.93
2018-08-18T06:01:45.084Z,1009.89
2018-08-18T06:02:45.105Z,1009.91
2018-08-18T06:03:45.062Z,1009.94
2018-08-18T06:04:45.058Z,1010.00
2018-08-18T06:05:45.131Z,1009.95
2018-08-18T06:06:45.035Z,1009.97
2018-08-18T06:07:45.039Z,1010.01
2018-08-18T06:08:45.011Z,1010.01
2018-08-18T06:09:44.995Z,1010.06
2018-08-18T06:10:44.992Z,1010.09
2018-08-18T06:11:44.971Z,1010.09
2018-08-18T06:12:44.991Z,1010.11
2018-08-18T06:13:44.951Z,1010.07
2018-08-18T06:14:44.943Z,1010.12
2018-08-18T06:15:44.924Z,1010.14
2018-08-18T06:16:44.916Z,1010.25
2018-08-18T06:17:44.902Z,1010.29
2018-08-18T06:18:44.908Z,1010.27
2018-08-18T06:19:44.884Z,1010.32
2018-08-18T06:20:44.870Z,1010.28
2018-08-18T06:21:44.853Z,1010.27
2018-08-18T06:22:44.838Z,1010.29
2018-08-18T06:23:44.854Z,1010.30
2018-08-18T06:24:44.827Z,1010.32
2018-08-18T06:25:44.803Z,1010.34
2018-08-18T06:26:44.798Z,1010.33
2018-08-18T06:27:44.786Z,1010.37
2018-08-18T06:28:44.793Z,1010.36
2018-08-18T06:29:44.769Z,1010.37
2018-08-18T06:30:44.754Z,1010.37
2018-08-18T06:31:44.738Z,1010.44
2018-08-18T06:32:44.732Z,1010.39
2018-08-18T06:33:44.733Z,1010.45
2018-08-18T06:34:44.863Z,1010.38
2018-08-18T06:35:44.693Z,1010.42
2018-08-18T06:36:44.702Z,1010.39
2018-08-18T06:37:44.662Z,1010.45
2018-08-18T06:38:44.677Z,1010.47
2018-08-18T06:39:44.640Z,1010.49
2018-08-18T06:40:44.635Z,1010.49
2018-08-18T06:41:44.753Z,1010.46
2018-08-18T06:42:44.654Z,1010.50
2018-08-18T06:43:44.624Z,1010.54
2018-08-18T06:44:44.589Z,1010.58
2018-08-18T06:45:44.567Z,1010.56
2018-08-18T06:46:44.559Z,1010.58
2018-08-18T06:47:44.550Z,1010.54
2018-08-18T06:48:44.574Z,1010.61
2018-08-18T06:49:44.524Z,1010.60
2018-08-18T06:50:44.510Z,1010.65
2018-08-18T06:51:44.507Z,1010.60
2018-08-18T06:52:44.486Z,1010.65
2018-08-18T06:53:44.485Z,1010.66
2018-08-18T06:54:44.574Z,1010.65
2018-08-18T06:55:44.460Z,1010.68
2018-08-18T06:56:44.444Z,1010.73
2018-08-18T06:57:44.434Z,1010.72
2018-08-18T06:58:44.424Z,1010.71
2018-08-18T06:59:44.445Z,1010.70
2018-08-18T07:00:44.394Z,1010.70
2018-08-18T07:01:44.392Z,1010.74
2018-08-18T07:02:44.370Z,1010.79
2018-08-18T07:03:44.367Z,1010.78
2018-08-18T07:04:44.351Z,1010.76
2018-08-18T07:05:44.393Z,1010.69
2018-08-18T07:06:44.326Z,1010.74
2018-08-18T07:07:44.318Z,1010.70
2018-08-18T07:08:44.308Z,1010.72
2018-08-18T07:09:44.288Z,1010.71
2018-08-18T07:10:44.307Z,1010.76
2018-08-18T07:11:44.265Z,1010.75
2018-08-18T07:12:44.259Z,1010.77
2018-08-18T07:13:44.244Z,1010.73
2018-08-18T07:14:44.233Z,1010.75
2018-08-18T07:15:44.246Z,1010.77
2018-08-18T07:16:44.210Z,1010.75
2018-08-18T07:17:44.201Z,1010.73
2018-08-18T07:18:44.192Z,1010.71
2018-08-18T07:19:44.173Z,1010.74
2018-08-18T07:20:44.199Z,1010.78
2018-08-18T07:21:44.153Z,1010.69
2018-08-18T07:22:44.138Z,1010.71
2018-08-18T07:23:44.136Z,1010.65
2018-08-18T07:24:44.123Z,1010.72
2018-08-18T07:25:44.105Z,1010.70
2018-08-18T07:26:44.119Z,1010.70
2018-08-18T07:27:44.084Z,1010.75
2018-08-18T07:28:44.169Z,1010.75
2018-08-18T07:29:44.055Z,1010.76
2018-08-18T07:30:44.056Z,1010.74
2018-08-18T07:31:44.065Z,1010.77
2018-08-18T07:32:44.125Z,1010.84
2018-08-18T07:33:44.011Z,1010.80
2018-08-18T07:34:43.997Z,1010.84
2018-08-18T07:35:43.997Z,1010.83
2018-08-18T07:36:44.001Z,1010.86
2018-08-18T07:37:43.967Z,1010.89
2018-08-18T07:38:43.961Z,1010.85
2018-08-18T07:39:44.364Z,1010.86
2018-08-18T07:40:44.366Z,1010.86
2018-08-18T07:41:44.011Z,1010.89
2018-08-18T07:42:44.189Z,1010.93
2018-08-18T07:43:43.894Z,1010.89
2018-08-18T07:44:43.887Z,1010.91
2018-08-18T07:45:43.875Z,1010.93
2018-08-18T07:46:43.887Z,1011.00
2018-08-18T07:47:43.879Z,1010.96
2018-08-18T07:48:43.845Z,1011.00
2018-08-18T07:49:43.824Z,1010.94
2018-08-18T07:50:43.826Z,1010.96
2018-08-18T07:51:43.824Z,1010.99
2018-08-18T07:52:44.448Z,1011.02
2018-08-18T07:53:43.814Z,1010.99
2018-08-18T07:54:44.443Z,1011.03
2018-08-18T07:55:43.757Z,1011.03
2018-08-18T07:56:43.766Z,1011.01
2018-08-18T07:57:43.737Z,1011.03
2018-08-18T07:58:43.739Z,1011.03
2018-08-18T07:59:43.737Z,1011.06
2018-08-18T08:00:43.962Z,1011.05
2018-08-18T08:01:43.719Z,1011.09
2018-08-18T08:02:43.732Z,1011.08
2018-08-18T08:03:43.662Z,1011.11
2018-08-18T08:04:43.685Z,1011.08
2018-08-18T08:05:43.888Z,1011.12
2018-08-18T08:06:43.662Z,1011.13
2018-08-18T08:07:43.644Z,1011.07
2018-08-18T08:08:43.617Z,1011.09
2018-08-18T08:09:44.164Z,1011.04
2018-08-18T08:10:43.596Z,1011.06
2018-08-18T08:11:43.575Z,1011.07
2018-08-18T08:12:43.774Z,1011.08
2018-08-18T08:13:43.562Z,1011.09
2018-08-18T08:14:43.549Z,1011.09
2018-08-18T08:15:43.531Z,1011.08
2018-08-18T08:16:43.519Z,1011.09
2018-08-18T08:17:43.538Z,1011.09
2018-08-18T08:18:44.552Z,1011.09
2018-08-18T08:19:43.512Z,1011.12
2018-08-18T08:20:43.748Z,1011.15
2018-08-18T08:21:43.468Z,1011.17
2018-08-18T08:22:43.453Z,1011.13
2018-08-18T08:23:43.469Z,1011.10
2018-08-18T08:24:43.434Z,1011.16
2018-08-18T08:25:43.419Z,1011.22
2018-08-18T08:26:43.411Z,1011.22
2018-08-18T08:27:43.397Z,1011.22
2018-08-18T08:28:43.412Z,1011.25
2018-08-18T08:29:43.373Z,1011.27
2018-08-18T08:30:43.367Z,1011.26
2018-08-18T08:31:43.359Z,1011.26
2018-08-18T08:32:44.040Z,1011.25
2018-08-18T08:33:43.366Z,1011.27
2018-08-18T08:34:43.319Z,1011.31
2018-08-18T08:35:43.311Z,1011.27
2018-08-18T08:36:43.308Z,1011.22
2018-08-18T08:37:43.284Z,1011.25
2018-08-18T08:38:43.273Z,1011.25
2018-08-18T08:39:43.294Z,1011.28
2018-08-18T08:40:43.333Z,1011.25
2018-08-18T08:41:43.256Z,1011.24
2018-08-18T08:42:43.255Z,1011.23
2018-08-18T08:43:43.247Z,1011.24
2018-08-18T08:44:43.226Z,1011.23
2018-08-18T08:45:43.200Z,1011.28
2018-08-18T08:46:43.192Z,1011.32
2018-08-18T08:47:43.212Z,1011.27
2018-08-18T08:48:43.573Z,1011.29
2018-08-18T08:49:43.826Z,1011.25
2018-08-18T08:50:43.171Z,1011.26
2018-08-18T08:51:43.153Z,1011.26
2018-08-18T08:52:43.145Z,1011.24
2018-08-18T08:53:43.121Z,1011.23
2018-08-18T08:54:43.164Z,1011.23
2018-08-18T08:55:43.086Z,1011.21
2018-08-18T08:56:43.077Z,1011.25
2018-08-18T08:57:43.066Z,1011.21
2018-08-18T08:58:43.097Z,1011.25
2018-08-18T08:59:43.110Z,1011.24
2018-08-18T09:00:43.071Z,1011.23
2018-08-18T09:01:43.059Z,1011.20
2018-08-18T09:02:43.010Z,1011.22
2018-08-18T09:03:43.039Z,1011.25
2018-08-18T09:04:44.742Z,1011.28
2018-08-18T09:05:43.002Z,1011.26
2018-08-18T09:06:42.986Z,1011.20
2018-08-18T09:07:43.087Z,1011.20
2018-08-18T09:08:42.945Z,1011.16
2018-08-18T09:09:45.516Z,1011.18
2018-08-18T09:10:42.951Z,1011.18
2018-08-18T09:11:42.922Z,1011.12
2018-08-18T09:12:42.933Z,1011.20
2018-08-18T09:13:42.899Z,1011.20
2018-08-18T09:14:42.892Z,1011.18
2018-08-18T09:15:42.903Z,1011.20
2018-08-18T09:16:42.866Z,1011.20
2018-08-18T09:17:42.857Z,1011.16
2018-08-18T09:18:42.841Z,1011.19
2018-08-18T09:19:42.828Z,1011.21
2018-08-18T09:20:42.848Z,1011.10
2018-08-18T09:21:42.822Z,1011.13
2018-08-18T09:22:42.795Z,1011.12
2018-08-18T09:23:42.794Z,1011.15
2018-08-18T09:24:42.787Z,1011.18
2018-08-18T09:25:42.794Z,1011.15
2018-08-18T09:26:42.755Z,1011.15
2018-08-18T09:27:42.747Z,1011.16
2018-08-18T09:28:42.732Z,1011.15
2018-08-18T09:29:42.731Z,1011.15
2018-08-18T09:30:42.717Z,1011.13
2018-08-18T09:31:42.726Z,1011.15
2018-08-18T09:32:42.695Z,1011.13
2018-08-18T09:33:42.684Z,1011.17
2018-08-18T09:34:42.675Z,1011.07
2018-08-18T09:35:42.668Z,1011.03
2018-08-18T09:36:42.676Z,1011.15
2018-08-18T09:37:42.640Z,1011.13
2018-08-18T09:38:42.632Z,1011.13
2018-08-18T09:39:42.626Z,1011.14
2018-08-18T09:40:42.610Z,1011.10
2018-08-18T09:41:42.636Z,1011.10
2018-08-18T09:42:42.592Z,1011.10
2018-08-18T09:43:42.578Z,1011.11
2018-08-18T09:44:42.600Z,1011.11
2018-08-18T09:45:42.601Z,1011.13
2018-08-18T09:46:42.562Z,1011.08
2018-08-18T09:47:42.602Z,1011.08
2018-08-18T09:48:42.524Z,1011.07
2018-08-18T09:49:42.517Z,1011.02
2018-08-18T09:50:42.511Z,1011.00
2018-08-18T09:51:42.496Z,1011.01
2018-08-18T09:52:42.510Z,1011.04
2018-08-18T09:53:42.479Z,1011.10
2018-08-18T09:54:42.461Z,1011.10
2018-08-18T09:55:42.460Z,1011.13
2018-08-18T09:56:42.444Z,1011.10
2018-08-18T09:57:42.469Z,1011.10
2018-08-18T09:58:42.433Z,1011.14
2018-08-18T09:59:42.412Z,1011.07
2018-08-18T10:00:42.409Z,1011.09
2018-08-18T10:01:42.389Z,1011.10
2018-08-18T10:02:42.380Z,1011.12
2018-08-18T10:03:42.399Z,1011.13
2018-08-18T10:04:42.369Z,1011.15
2018-08-18T10:05:42.349Z,1011.17
2018-08-18T10:06:42.343Z,1011.19
2018-08-18T10:07:42.330Z,1011.19
2018-08-18T10:08:42.349Z,1010.99
2018-08-18T10:09:42.312Z,1010.67
2018-08-18T10:10:42.299Z,1010.57
2018-08-18T10:11:42.297Z,1011.18
2018-08-18T10:12:42.287Z,1011.23
2018-08-18T10:13:42.291Z,1011.27
2018-08-18T10:14:42.262Z,1011.22
2018-08-18T10:15:42.253Z,1011.18
2018-08-18T10:16:42.237Z,1011.23
2018-08-18T10:17:42.234Z,1011.19
2018-08-18T10:18:42.252Z,1011.21
2018-08-18T10:19:42.206Z,1011.23
2018-08-18T10:20:42.198Z,1011.24
2018-08-18T10:21:42.184Z,1011.20
2018-08-18T10:22:42.171Z,1011.25
2018-08-18T10:23:42.163Z,1011.21
2018-08-18T10:24:42.239Z,1011.21
2018-08-18T10:25:42.140Z,1011.14
2018-08-18T10:26:42.132Z,1011.13
2018-08-18T10:27:42.125Z,1011.15
2018-08-18T10:28:42.114Z,1010.88
2018-08-18T10:29:42.125Z,1010.93
2018-08-18T10:30:42.087Z,1010.88
2018-08-18T10:31:42.085Z,1010.93
2018-08-18T10:32:42.074Z,1010.59
2018-08-18T10:33:42.055Z,1010.63
2018-08-18T10:34:42.071Z,1010.64
2018-08-18T10:35:42.039Z,1010.63
2018-08-18T10:36:42.026Z,1010.49
2018-08-18T10:37:42.020Z,1010.60
2018-08-18T10:38:42.004Z,1010.57
2018-08-18T10:39:42.029Z,1010.51
2018-08-18T10:40:41.981Z,1010.47
2018-08-18T10:41:41.977Z,1010.62
2018-08-18T10:42:41.958Z,1010.60
2018-08-18T10:43:41.955Z,1010.57
2018-08-18T10:44:41.939Z,1010.57
2018-08-18T10:45:41.951Z,1010.54
2018-08-18T10:46:41.914Z,1010.56
2018-08-18T10:47:41.907Z,1010.56
2018-08-18T10:48:41.943Z,1010.43
2018-08-18T10:49:41.916Z,1010.61
2018-08-18T10:50:41.892Z,1010.49
2018-08-18T10:51:41.956Z,1010.47
2018-08-18T10:52:41.854Z,1010.40
2018-08-18T10:53:41.840Z,1010.44
2018-08-18T10:54:41.892Z,1010.47
2018-08-18T10:55:41.846Z,1010.44
2018-08-18T10:56:41.807Z,1010.45
2018-08-18T10:57:41.815Z,1010.42
2018-08-18T10:58:41.786Z,1010.43
2018-08-18T10:59:41.765Z,1010.35
2018-08-18T11:00:41.753Z,1010.34
2018-08-18T11:01:41.774Z,1010.37
2018-08-18T11:02:41.737Z,1010.42
2018-08-18T11:03:41.721Z,1010.36
2018-08-18T11:04:41.716Z,1010.42
2018-08-18T11:05:41.696Z,1010.43
2018-08-18T11:06:41.710Z,1010.36
2018-08-18T11:07:41.684Z,1010.38
2018-08-18T11:08:41.671Z,1010.31
2018-08-18T11:09:41.656Z,1010.39
2018-08-18T11:10:41.648Z,1010.45
2018-08-18T11:11:41.658Z,1010.47
2018-08-18T11:12:41.621Z,1010.37
2018-08-18T11:13:41.608Z,1010.33
2018-08-18T11:14:41.775Z,1010.34
2018-08-18T11:15:41.590Z,1010.37
2018-08-18T11:16:41.578Z,1010.37
2018-08-18T11:17:41.589Z,1010.40
2018-08-18T11:18:41.557Z,1010.40
2018-08-18T11:19:41.543Z,1010.43
2018-08-18T11:20:41.537Z,1010.36
2018-08-18T11:21:41.565Z,1010.39
2018-08-18T11:22:41.533Z,1010.40
2018-08-18T11:23:41.499Z,1010.40
2018-08-18T11:24:41.485Z,1010.39
2018-08-18T11:25:41.472Z,1010.41
2018-08-18T11:26:41.463Z,1010.39
2018-08-18T11:27:41.448Z,1010.44
2018-08-18T11:28:41.678Z,1010.42
2018-08-18T11:29:41.425Z,1010.39
2018-08-18T11:30:41.414Z,1010.40
2018-08-18T11:31:41.406Z,1010.39
2018-08-18T11:32:41.388Z,1010.38
2018-08-18T11:33:41.411Z,1010.42
2018-08-18T11:34:41.369Z,1010.40
2018-08-18T11:35:41.364Z,1010.37
2018-08-18T11:36:41.348Z,1010.37
2018-08-18T11:37:41.338Z,1010.31
2018-08-18T11:38:41.361Z,1010.40
2018-08-18T11:39:41.318Z,1010.26
2018-08-18T11:40:41.315Z,1010.31
2018-08-18T11:41:41.393Z,1010.34
2018-08-18T11:42:41.279Z,1010.37
2018-08-18T11:43:41.269Z,1010.35
2018-08-18T11:44:41.276Z,1010.33
2018-08-18T11:45:41.252Z,1010.34
2018-08-18T11:46:41.230Z,1010.30
2018-08-18T11:47:41.228Z,1010.31
2018-08-18T11:48:41.216Z,1010.27
2018-08-18T11:49:41.218Z,1010.23
2018-08-18T11:50:41.192Z,1010.21
2018-08-18T11:51:41.177Z,1010.19
2018-08-18T11:52:41.168Z,1010.25
2018-08-18T11:53:41.152Z,1010.28
2018-08-18T11:54:41.169Z,1010.25
2018-08-18T11:55:41.133Z,1010.20
2018-08-18T11:56:41.122Z,1010.19
2018-08-18T11:57:41.109Z,1010.15
2018-08-18T11:58:41.099Z,1010.19
2018-08-18T11:59:41.111Z,1010.13
2018-08-18T12:00:41.082Z,1010.15
2018-08-18T12:01:41.058Z,1010.06
2018-08-18T12:02:41.058Z,1010.08
2018-08-18T12:03:41.036Z,1010.08
2018-08-18T12:04:41.057Z,1010.11
2018-08-18T12:05:41.018Z,1010.09